หน้าหลัก
METAR-TAF:

METAR-TAF

ท่าอากาศยาน :

แท่นขุดเจาะน้ำมัน

Sleipner, นอร์เวย์

ละติจูด: 58-22-00N, ลองจิจูด: 001-54-25E, ความสูง: 50 ม.

การสังเกตสภาพอากาศปัจจุบัน

รายงานได้ทำขึ้นเมื่อ 38 นาทีที่แล้ว ณ เวลา 23:50 UTC
ลม 26 นอตจากเหนือ/ตะวันตกเฉียงเหนือ
อุณหภูมิ 10°C
ความชื้น 87%
ความกดอากาศ 1017 hPa
ทัศนวิสัย: 3400 ม.
ละอองฝนตกเล็กน้อย, หมอกน้ำค้าง,

METAR: ENSL 182350Z AUTO 33026KT 3400 -DZ BR BKN014/// 10/08 Q1017 W10/S4

เวลา: 02:28 (00:28 UTC)


TAF: หายไป

สังเกตการณ์สภาพอากาศและพยากรณ์อากาศของสนามบินมากกว่า 4000 แห่ง (รายงาน METAR และ TAF).

สถานีที่ดูได้จะแสดงไว้ด้วยจุดสีเหลืองและสีแดงบนแผนที่.

เลื่อนเมาส์ไปเหนือจุดเพื่อดูชื่อสถานี.

แล้วคลิกเพื่อดูสังเกตการณ์และการพยากรณ์สภาพอากาศ.

ในการเปลี่ยนแผนที่: คลิกที่ปุ่มสีเขียวที่มีกากบาทสีดำเพื่อซูมเข้า; ที่ปุ่มสีเขียวที่มีขีดเพื่อซูมออก; หรือที่ลูกศรสีเขียวเพื่อไปยังแผนที่ที่อยู่ติดกัน.


METAR-TAF: